sensor_id;sensor_type;location;lat;lon;timestamp;temperature;humidity
10891;DHT22;5498;50.928;11.598;2022-08-20T00:00:28;19.20;91.50
10891;DHT22;5498;50.928;11.598;2022-08-20T00:03:33;19.20;92.00
10891;DHT22;5498;50.928;11.598;2022-08-20T00:06:36;19.20;91.70
10891;DHT22;5498;50.928;11.598;2022-08-20T00:09:40;19.20;91.60
10891;DHT22;5498;50.928;11.598;2022-08-20T00:12:43;19.20;91.60
10891;DHT22;5498;50.928;11.598;2022-08-20T00:15:47;19.20;91.80
10891;DHT22;5498;50.928;11.598;2022-08-20T00:18:49;19.20;92.00
10891;DHT22;5498;50.928;11.598;2022-08-20T00:21:51;19.20;92.10
10891;DHT22;5498;50.928;11.598;2022-08-20T00:24:55;19.20;92.20
10891;DHT22;5498;50.928;11.598;2022-08-20T00:27:57;19.20;92.20
10891;DHT22;5498;50.928;11.598;2022-08-20T00:31:02;19.20;92.40
10891;DHT22;5498;50.928;11.598;2022-08-20T00:34:05;19.20;92.40
10891;DHT22;5498;50.928;11.598;2022-08-20T00:37:06;19.20;92.40
10891;DHT22;5498;50.928;11.598;2022-08-20T00:40:13;19.20;92.50
10891;DHT22;5498;50.928;11.598;2022-08-20T00:43:28;19.30;92.70
10891;DHT22;5498;50.928;11.598;2022-08-20T00:46:33;19.20;92.70
10891;DHT22;5498;50.928;11.598;2022-08-20T00:49:36;19.20;92.80
10891;DHT22;5498;50.928;11.598;2022-08-20T00:52:39;19.20;92.70
10891;DHT22;5498;50.928;11.598;2022-08-20T00:55:43;19.20;92.90
10891;DHT22;5498;50.928;11.598;2022-08-20T00:58:46;19.20;92.80
10891;DHT22;5498;50.928;11.598;2022-08-20T01:01:48;19.20;92.80
10891;DHT22;5498;50.928;11.598;2022-08-20T01:04:51;19.20;92.90
10891;DHT22;5498;50.928;11.598;2022-08-20T01:07:54;19.20;92.80
10891;DHT22;5498;50.928;11.598;2022-08-20T01:10:58;19.20;92.90
10891;DHT22;5498;50.928;11.598;2022-08-20T01:14:11;19.10;92.90
10891;DHT22;5498;50.928;11.598;2022-08-20T01:17:34;19.20;93.00
10891;DHT22;5498;50.928;11.598;2022-08-20T01:20:39;19.10;93.10
10891;DHT22;5498;50.928;11.598;2022-08-20T01:23:47;19.10;93.00
10891;DHT22;5498;50.928;11.598;2022-08-20T01:26:54;19.10;93.10
10891;DHT22;5498;50.928;11.598;2022-08-20T01:29:56;19.20;93.10
10891;DHT22;5498;50.928;11.598;2022-08-20T01:33:00;19.10;93.00
10891;DHT22;5498;50.928;11.598;2022-08-20T01:36:03;19.10;92.90
10891;DHT22;5498;50.928;11.598;2022-08-20T01:39:08;19.10;93.10
10891;DHT22;5498;50.928;11.598;2022-08-20T01:42:19;19.10;93.10
10891;DHT22;5498;50.928;11.598;2022-08-20T01:45:24;19.10;93.20
10891;DHT22;5498;50.928;11.598;2022-08-20T01:48:28;19.00;93.20
10891;DHT22;5498;50.928;11.598;2022-08-20T01:51:31;19.10;93.30
10891;DHT22;5498;50.928;11.598;2022-08-20T01:54:33;19.10;93.20
10891;DHT22;5498;50.928;11.598;2022-08-20T01:57:37;19.00;93.30
10891;DHT22;5498;50.928;11.598;2022-08-20T02:00:40;19.00;93.30
10891;DHT22;5498;50.928;11.598;2022-08-20T02:03:42;19.00;93.40
10891;DHT22;5498;50.928;11.598;2022-08-20T02:06:48;19.00;93.30
10891;DHT22;5498;50.928;11.598;2022-08-20T02:09:52;19.10;93.40
10891;DHT22;5498;50.928;11.598;2022-08-20T02:12:55;19.00;93.30
10891;DHT22;5498;50.928;11.598;2022-08-20T02:15:57;19.10;93.30
10891;DHT22;5498;50.928;11.598;2022-08-20T02:19:02;19.10;93.30
10891;DHT22;5498;50.928;11.598;2022-08-20T02:22:15;19.10;93.30
10891;DHT22;5498;50.928;11.598;2022-08-20T02:25:23;19.10;93.40
10891;DHT22;5498;50.928;11.598;2022-08-20T02:28:27;19.10;93.30
10891;DHT22;5498;50.928;11.598;2022-08-20T02:31:29;19.00;93.20
10891;DHT22;5498;50.928;11.598;2022-08-20T02:34:31;19.00;93.30
10891;DHT22;5498;50.928;11.598;2022-08-20T02:37:35;19.50;93.50
10891;DHT22;5498;50.928;11.598;2022-08-20T02:40:39;19.00;93.40
10891;DHT22;5498;50.928;11.598;2022-08-20T02:43:44;19.00;93.40
10891;DHT22;5498;50.928;11.598;2022-08-20T02:46:46;19.00;93.40
10891;DHT22;5498;50.928;11.598;2022-08-20T02:49:49;19.00;93.50
10891;DHT22;5498;50.928;11.598;2022-08-20T02:52:52;19.00;93.40
10891;DHT22;5498;50.928;11.598;2022-08-20T02:55:54;19.00;93.60
10891;DHT22;5498;50.928;11.598;2022-08-20T02:58:58;19.00;93.70
10891;DHT22;5498;50.928;11.598;2022-08-20T03:02:00;19.00;93.60
10891;DHT22;5498;50.928;11.598;2022-08-20T03:05:02;19.00;93.90
10891;DHT22;5498;50.928;11.598;2022-08-20T03:08:06;19.10;93.50
10891;DHT22;5498;50.928;11.598;2022-08-20T03:11:09;19.10;93.40
10891;DHT22;5498;50.928;11.598;2022-08-20T03:14:12;19.10;93.50
10891;DHT22;5498;50.928;11.598;2022-08-20T03:17:14;19.00;93.30
10891;DHT22;5498;50.928;11.598;2022-08-20T03:20:16;19.00;93.40
10891;DHT22;5498;50.928;11.598;2022-08-20T03:23:20;19.00;93.40
10891;DHT22;5498;50.928;11.598;2022-08-20T03:26:22;19.00;93.60
10891;DHT22;5498;50.928;11.598;2022-08-20T03:29:25;19.00;93.40
10891;DHT22;5498;50.928;11.598;2022-08-20T03:32:27;19.00;93.50
10891;DHT22;5498;50.928;11.598;2022-08-20T03:35:31;18.90;93.50
10891;DHT22;5498;50.928;11.598;2022-08-20T03:38:33;18.90;93.70
10891;DHT22;5498;50.928;11.598;2022-08-20T03:41:35;18.90;93.60
10891;DHT22;5498;50.928;11.598;2022-08-20T03:44:40;18.90;93.50
10891;DHT22;5498;50.928;11.598;2022-08-20T03:47:41;18.90;93.40
10891;DHT22;5498;50.928;11.598;2022-08-20T03:50:44;18.90;93.60
10891;DHT22;5498;50.928;11.598;2022-08-20T03:53:47;18.90;93.70
10891;DHT22;5498;50.928;11.598;2022-08-20T03:56:49;18.90;93.60
10891;DHT22;5498;50.928;11.598;2022-08-20T03:59:52;18.90;93.70
10891;DHT22;5498;50.928;11.598;2022-08-20T04:02:54;18.90;93.80
10891;DHT22;5498;50.928;11.598;2022-08-20T04:05:56;18.90;93.70
10891;DHT22;5498;50.928;11.598;2022-08-20T04:08:59;18.90;93.60
10891;DHT22;5498;50.928;11.598;2022-08-20T04:12:01;18.90;93.60
10891;DHT22;5498;50.928;11.598;2022-08-20T04:15:06;18.90;93.60
10891;DHT22;5498;50.928;11.598;2022-08-20T04:18:10;18.90;93.80
10891;DHT22;5498;50.928;11.598;2022-08-20T04:21:12;18.90;93.80
10891;DHT22;5498;50.928;11.598;2022-08-20T04:24:14;18.90;93.70
10891;DHT22;5498;50.928;11.598;2022-08-20T04:27:16;18.90;93.60
10891;DHT22;5498;50.928;11.598;2022-08-20T04:30:20;18.90;93.70
10891;DHT22;5498;50.928;11.598;2022-08-20T04:33:25;18.90;93.60
10891;DHT22;5498;50.928;11.598;2022-08-20T04:36:28;18.90;93.80
10891;DHT22;5498;50.928;11.598;2022-08-20T04:39:30;18.90;93.70
10891;DHT22;5498;50.928;11.598;2022-08-20T04:42:34;18.90;93.80
10891;DHT22;5498;50.928;11.598;2022-08-20T04:45:38;18.90;93.80
10891;DHT22;5498;50.928;11.598;2022-08-20T04:48:40;19.00;93.70
10891;DHT22;5498;50.928;11.598;2022-08-20T04:51:42;19.00;93.70
10891;DHT22;5498;50.928;11.598;2022-08-20T04:54:44;19.00;93.70
10891;DHT22;5498;50.928;11.598;2022-08-20T04:57:47;18.90;93.60
10891;DHT22;5498;50.928;11.598;2022-08-20T05:00:52;18.90;93.70
10891;DHT22;5498;50.928;11.598;2022-08-20T05:03:56;18.90;93.90
10891;DHT22;5498;50.928;11.598;2022-08-20T05:07:00;18.90;93.90
10891;DHT22;5498;50.928;11.598;2022-08-20T05:10:03;18.90;93.50
10891;DHT22;5498;50.928;11.598;2022-08-20T05:13:07;18.90;93.90
10891;DHT22;5498;50.928;11.598;2022-08-20T05:16:11;18.80;93.90
10891;DHT22;5498;50.928;11.598;2022-08-20T05:19:14;18.90;94.00
10891;DHT22;5498;50.928;11.598;2022-08-20T05:22:16;18.80;93.80
10891;DHT22;5498;50.928;11.598;2022-08-20T05:25:18;18.80;93.80
10891;DHT22;5498;50.928;11.598;2022-08-20T05:28:24;18.90;93.80
10891;DHT22;5498;50.928;11.598;2022-08-20T05:31:38;19.20;94.00
10891;DHT22;5498;50.928;11.598;2022-08-20T05:34:41;19.20;93.60
10891;DHT22;5498;50.928;11.598;2022-08-20T05:37:44;18.90;93.30
10891;DHT22;5498;50.928;11.598;2022-08-20T05:40:47;19.20;93.60
10891;DHT22;5498;50.928;11.598;2022-08-20T05:43:49;18.90;94.20
10891;DHT22;5498;50.928;11.598;2022-08-20T05:46:53;18.90;93.20
10891;DHT22;5498;50.928;11.598;2022-08-20T05:49:55;19.20;93.40
10891;DHT22;5498;50.928;11.598;2022-08-20T05:52:57;19.30;93.00
10891;DHT22;5498;50.928;11.598;2022-08-20T05:56:01;19.30;93.10
10891;DHT22;5498;50.928;11.598;2022-08-20T05:59:05;19.00;93.50
10891;DHT22;5498;50.928;11.598;2022-08-20T06:02:12;19.30;93.90
10891;DHT22;5498;50.928;11.598;2022-08-20T06:24:23;18.90;94.30
10891;DHT22;5498;50.928;11.598;2022-08-20T06:37:31;19.30;94.50
10891;DHT22;5498;50.928;11.598;2022-08-20T06:41:08;19.60;94.30
10891;DHT22;5498;50.928;11.598;2022-08-20T06:44:10;19.30;94.20
10891;DHT22;5498;50.928;11.598;2022-08-20T06:47:12;19.30;94.20
10891;DHT22;5498;50.928;11.598;2022-08-20T06:50:17;19.30;94.10
10891;DHT22;5498;50.928;11.598;2022-08-20T06:53:20;19.40;94.30
10891;DHT22;5498;50.928;11.598;2022-08-20T06:56:24;19.40;94.00
10891;DHT22;5498;50.928;11.598;2022-08-20T06:59:26;19.40;94.20
10891;DHT22;5498;50.928;11.598;2022-08-20T07:02:29;19.50;94.10
10891;DHT22;5498;50.928;11.598;2022-08-20T07:15:18;19.50;94.10
10891;DHT22;5498;50.928;11.598;2022-08-20T07:18:22;19.10;94.10
10891;DHT22;5498;50.928;11.598;2022-08-20T07:21:30;19.50;94.10
10891;DHT22;5498;50.928;11.598;2022-08-20T07:24:33;19.10;94.00
10891;DHT22;5498;50.928;11.598;2022-08-20T07:27:35;19.90;93.80
10891;DHT22;5498;50.928;11.598;2022-08-20T07:30:39;19.60;94.00
10891;DHT22;5498;50.928;11.598;2022-08-20T07:33:58;19.60;94.10
10891;DHT22;5498;50.928;11.598;2022-08-20T07:37:00;19.70;94.00
10891;DHT22;5498;50.928;11.598;2022-08-20T07:40:03;19.70;93.90
10891;DHT22;5498;50.928;11.598;2022-08-20T07:43:06;19.70;94.10
10891;DHT22;5498;50.928;11.598;2022-08-20T07:46:11;19.80;93.90
10891;DHT22;5498;50.928;11.598;2022-08-20T07:49:13;19.80;93.90
10891;DHT22;5498;50.928;11.598;2022-08-20T07:52:15;19.80;93.80
10891;DHT22;5498;50.928;11.598;2022-08-20T07:55:18;19.80;93.50
10891;DHT22;5498;50.928;11.598;2022-08-20T07:58:21;19.90;93.80
10891;DHT22;5498;50.928;11.598;2022-08-20T08:01:27;19.90;93.70
10891;DHT22;5498;50.928;11.598;2022-08-20T08:04:31;20.00;93.80
10891;DHT22;5498;50.928;11.598;2022-08-20T08:07:34;20.00;93.70
10891;DHT22;5498;50.928;11.598;2022-08-20T08:10:37;20.10;93.80
10891;DHT22;5498;50.928;11.598;2022-08-20T08:13:41;20.10;93.80
10891;DHT22;5498;50.928;11.598;2022-08-20T08:16:46;20.20;93.60
10891;DHT22;5498;50.928;11.598;2022-08-20T08:19:49;20.20;93.60
10891;DHT22;5498;50.928;11.598;2022-08-20T08:22:51;20.30;93.60
10891;DHT22;5498;50.928;11.598;2022-08-20T08:25:53;20.30;93.40
10891;DHT22;5498;50.928;11.598;2022-08-20T08:28:55;20.30;93.30
10891;DHT22;5498;50.928;11.598;2022-08-20T08:32:00;20.40;93.40
10891;DHT22;5498;50.928;11.598;2022-08-20T08:35:04;20.40;93.50
10891;DHT22;5498;50.928;11.598;2022-08-20T08:38:08;20.50;93.50
10891;DHT22;5498;50.928;11.598;2022-08-20T08:41:15;20.50;93.30
10891;DHT22;5498;50.928;11.598;2022-08-20T08:44:22;20.60;93.40
10891;DHT22;5498;50.928;11.598;2022-08-20T08:47:33;20.60;93.40
10891;DHT22;5498;50.928;11.598;2022-08-20T08:50:38;20.60;93.30
10891;DHT22;5498;50.928;11.598;2022-08-20T08:53:46;20.60;93.20
10891;DHT22;5498;50.928;11.598;2022-08-20T08:56:51;20.70;93.20
10891;DHT22;5498;50.928;11.598;2022-08-20T08:59:55;20.70;93.20
10891;DHT22;5498;50.928;11.598;2022-08-20T09:03:04;20.80;93.20
10891;DHT22;5498;50.928;11.598;2022-08-20T09:06:07;20.80;93.20
10891;DHT22;5498;50.928;11.598;2022-08-20T09:09:15;20.90;93.20
10891;DHT22;5498;50.928;11.598;2022-08-20T09:12:20;20.90;93.20
10891;DHT22;5498;50.928;11.598;2022-08-20T09:15:24;20.90;93.20
10891;DHT22;5498;50.928;11.598;2022-08-20T09:18:27;21.00;93.00
10891;DHT22;5498;50.928;11.598;2022-08-20T09:21:29;21.00;92.90
10891;DHT22;5498;50.928;11.598;2022-08-20T09:24:31;21.10;92.80
10891;DHT22;5498;50.928;11.598;2022-08-20T09:27:33;21.10;92.60
10891;DHT22;5498;50.928;11.598;2022-08-20T09:30:35;21.10;92.90
10891;DHT22;5498;50.928;11.598;2022-08-20T09:33:38;21.20;92.50
10891;DHT22;5498;50.928;11.598;2022-08-20T09:36:41;21.20;92.30
10891;DHT22;5498;50.928;11.598;2022-08-20T09:39:43;21.30;92.10
10891;DHT22;5498;50.928;11.598;2022-08-20T09:42:45;21.30;92.00
10891;DHT22;5498;50.928;11.598;2022-08-20T09:45:47;21.30;91.80
10891;DHT22;5498;50.928;11.598;2022-08-20T09:48:50;21.40;91.70
10891;DHT22;5498;50.928;11.598;2022-08-20T09:51:52;21.50;91.60
10891;DHT22;5498;50.928;11.598;2022-08-20T09:54:56;21.50;91.50
10891;DHT22;5498;50.928;11.598;2022-08-20T09:58:00;21.60;91.50
10891;DHT22;5498;50.928;11.598;2022-08-20T10:01:06;21.60;91.40
10891;DHT22;5498;50.928;11.598;2022-08-20T10:04:11;21.70;91.40
10891;DHT22;5498;50.928;11.598;2022-08-20T10:07:13;21.80;91.20
10891;DHT22;5498;50.928;11.598;2022-08-20T10:10:15;21.80;91.00
10891;DHT22;5498;50.928;11.598;2022-08-20T10:13:17;21.90;90.90
10891;DHT22;5498;50.928;11.598;2022-08-20T10:16:19;22.10;90.80
10891;DHT22;5498;50.928;11.598;2022-08-20T10:19:23;22.10;90.70
10891;DHT22;5498;50.928;11.598;2022-08-20T10:22:25;22.20;90.70
10891;DHT22;5498;50.928;11.598;2022-08-20T10:25:27;22.20;90.00
10891;DHT22;5498;50.928;11.598;2022-08-20T10:28:29;22.20;89.40
10891;DHT22;5498;50.928;11.598;2022-08-20T10:31:30;22.30;88.80
10891;DHT22;5498;50.928;11.598;2022-08-20T10:34:34;22.70;87.60
10891;DHT22;5498;50.928;11.598;2022-08-20T10:37:36;22.40;87.50
10891;DHT22;5498;50.928;11.598;2022-08-20T10:40:37;22.50;86.90
10891;DHT22;5498;50.928;11.598;2022-08-20T10:43:39;22.80;88.10
10891;DHT22;5498;50.928;11.598;2022-08-20T10:46:41;22.60;86.50
10891;DHT22;5498;50.928;11.598;2022-08-20T10:49:47;22.60;86.40
10891;DHT22;5498;50.928;11.598;2022-08-20T10:52:49;22.30;86.10
10891;DHT22;5498;50.928;11.598;2022-08-20T10:55:52;22.40;86.30
10891;DHT22;5498;50.928;11.598;2022-08-20T10:58:54;22.50;86.40
10891;DHT22;5498;50.928;11.598;2022-08-20T11:01:56;22.70;85.80
10891;DHT22;5498;50.928;11.598;2022-08-20T11:04:59;22.60;84.00
10891;DHT22;5498;50.928;11.598;2022-08-20T11:08:03;22.90;84.00
10891;DHT22;5498;50.928;11.598;2022-08-20T11:11:06;22.50;84.20
10891;DHT22;5498;50.928;11.598;2022-08-20T11:14:07;22.50;84.10
10891;DHT22;5498;50.928;11.598;2022-08-20T11:17:10;22.30;83.30
10891;DHT22;5498;50.928;11.598;2022-08-20T11:20:16;22.20;83.20
10891;DHT22;5498;50.928;11.598;2022-08-20T11:23:20;22.30;84.00
10891;DHT22;5498;50.928;11.598;2022-08-20T11:26:23;22.50;84.30
10891;DHT22;5498;50.928;11.598;2022-08-20T11:29:25;22.60;83.40
10891;DHT22;5498;50.928;11.598;2022-08-20T11:32:27;22.70;81.60
10891;DHT22;5498;50.928;11.598;2022-08-20T11:35:33;22.50;82.10
10891;DHT22;5498;50.928;11.598;2022-08-20T11:38:36;22.60;82.70
10891;DHT22;5498;50.928;11.598;2022-08-20T11:41:39;23.20;82.80
10891;DHT22;5498;50.928;11.598;2022-08-20T11:44:42;22.70;81.60
10891;DHT22;5498;50.928;11.598;2022-08-20T11:47:44;22.70;81.40
10891;DHT22;5498;50.928;11.598;2022-08-20T11:50:48;22.80;81.30
10891;DHT22;5498;50.928;11.598;2022-08-20T11:53:50;22.90;80.70
10891;DHT22;5498;50.928;11.598;2022-08-20T11:56:52;22.90;80.60
10891;DHT22;5498;50.928;11.598;2022-08-20T11:59:55;23.00;79.90
10891;DHT22;5498;50.928;11.598;2022-08-20T12:02:59;23.00;79.30
10891;DHT22;5498;50.928;11.598;2022-08-20T12:06:03;22.80;79.00
10891;DHT22;5498;50.928;11.598;2022-08-20T12:09:05;22.80;79.10
10891;DHT22;5498;50.928;11.598;2022-08-20T12:12:07;22.80;79.30
10891;DHT22;5498;50.928;11.598;2022-08-20T12:15:10;22.90;78.50
10891;DHT22;5498;50.928;11.598;2022-08-20T12:18:12;22.90;78.20
10891;DHT22;5498;50.928;11.598;2022-08-20T12:21:15;22.90;78.20
10891;DHT22;5498;50.928;11.598;2022-08-20T12:24:17;22.90;78.30
10891;DHT22;5498;50.928;11.598;2022-08-20T12:27:21;23.00;78.00
10891;DHT22;5498;50.928;11.598;2022-08-20T12:30:24;22.80;78.40
10891;DHT22;5498;50.928;11.598;2022-08-20T12:33:27;22.90;78.50
10891;DHT22;5498;50.928;11.598;2022-08-20T12:36:30;22.90;78.10
10891;DHT22;5498;50.928;11.598;2022-08-20T12:39:32;22.90;78.70
10891;DHT22;5498;50.928;11.598;2022-08-20T12:42:34;22.90;79.00
10891;DHT22;5498;50.928;11.598;2022-08-20T12:45:37;23.10;78.30
10891;DHT22;5498;50.928;11.598;2022-08-20T12:48:39;23.30;77.70
10891;DHT22;5498;50.928;11.598;2022-08-20T12:51:42;23.60;77.60
10891;DHT22;5498;50.928;11.598;2022-08-20T12:54:44;23.40;76.50
10891;DHT22;5498;50.928;11.598;2022-08-20T12:57:48;23.40;77.10
10891;DHT22;5498;50.928;11.598;2022-08-20T13:01:06;23.60;77.40
10891;DHT22;5498;50.928;11.598;2022-08-20T13:04:07;24.20;76.10
10891;DHT22;5498;50.928;11.598;2022-08-20T13:07:11;23.70;75.50
10891;DHT22;5498;50.928;11.598;2022-08-20T13:10:15;23.80;75.20
10891;DHT22;5498;50.928;11.598;2022-08-20T13:13:19;23.80;75.60
10891;DHT22;5498;50.928;11.598;2022-08-20T13:16:22;23.70;74.50
10891;DHT22;5498;50.928;11.598;2022-08-20T13:19:25;23.60;75.40
10891;DHT22;5498;50.928;11.598;2022-08-20T13:22:28;23.60;75.90
10891;DHT22;5498;50.928;11.598;2022-08-20T13:25:30;23.50;75.90
10891;DHT22;5498;50.928;11.598;2022-08-20T13:28:33;23.40;76.40
10891;DHT22;5498;50.928;11.598;2022-08-20T13:31:36;23.40;75.60
10891;DHT22;5498;50.928;11.598;2022-08-20T13:34:38;23.50;76.00
10891;DHT22;5498;50.928;11.598;2022-08-20T13:37:40;23.90;75.50
10891;DHT22;5498;50.928;11.598;2022-08-20T13:40:43;23.70;75.10
10891;DHT22;5498;50.928;11.598;2022-08-20T13:43:45;23.70;74.80
10891;DHT22;5498;50.928;11.598;2022-08-20T13:46:48;23.90;74.70
10891;DHT22;5498;50.928;11.598;2022-08-20T13:49:54;23.80;74.20
10891;DHT22;5498;50.928;11.598;2022-08-20T13:52:57;23.80;74.30
10891;DHT22;5498;50.928;11.598;2022-08-20T13:55:59;23.90;73.30
10891;DHT22;5498;50.928;11.598;2022-08-20T13:59:01;23.80;73.10
10891;DHT22;5498;50.928;11.598;2022-08-20T14:02:05;23.60;72.60
10891;DHT22;5498;50.928;11.598;2022-08-20T14:05:08;23.60;73.30
10891;DHT22;5498;50.928;11.598;2022-08-20T14:08:12;23.60;73.70
10891;DHT22;5498;50.928;11.598;2022-08-20T14:11:15;23.60;74.00
10891;DHT22;5498;50.928;11.598;2022-08-20T14:14:18;23.60;73.90
10891;DHT22;5498;50.928;11.598;2022-08-20T14:17:23;23.70;74.00
10891;DHT22;5498;50.928;11.598;2022-08-20T14:20:29;23.70;74.20
10891;DHT22;5498;50.928;11.598;2022-08-20T14:23:32;23.80;74.30
10891;DHT22;5498;50.928;11.598;2022-08-20T14:26:34;23.60;74.00
10891;DHT22;5498;50.928;11.598;2022-08-20T14:29:38;23.70;75.20
10891;DHT22;5498;50.928;11.598;2022-08-20T14:32:46;23.40;75.70
10891;DHT22;5498;50.928;11.598;2022-08-20T14:35:48;23.40;75.60
10891;DHT22;5498;50.928;11.598;2022-08-20T14:38:50;23.40;76.00
10891;DHT22;5498;50.928;11.598;2022-08-20T14:41:52;23.50;76.30
10891;DHT22;5498;50.928;11.598;2022-08-20T14:44:55;23.50;76.40
10891;DHT22;5498;50.928;11.598;2022-08-20T14:47:59;23.40;76.60
10891;DHT22;5498;50.928;11.598;2022-08-20T14:51:01;23.50;76.50
10891;DHT22;5498;50.928;11.598;2022-08-20T14:54:04;23.80;76.40
10891;DHT22;5498;50.928;11.598;2022-08-20T14:57:07;23.60;76.30
10891;DHT22;5498;50.928;11.598;2022-08-20T15:00:14;23.50;75.60
10891;DHT22;5498;50.928;11.598;2022-08-20T15:03:33;23.60;75.70
10891;DHT22;5498;50.928;11.598;2022-08-20T15:06:35;23.60;74.80
10891;DHT22;5498;50.928;11.598;2022-08-20T15:09:37;23.50;74.50
10891;DHT22;5498;50.928;11.598;2022-08-20T15:12:39;23.50;74.80
10891;DHT22;5498;50.928;11.598;2022-08-20T15:15:41;23.70;75.60
10891;DHT22;5498;50.928;11.598;2022-08-20T15:18:44;23.50;74.90
10891;DHT22;5498;50.928;11.598;2022-08-20T15:21:46;23.50;74.30
10891;DHT22;5498;50.928;11.598;2022-08-20T15:24:49;23.50;75.30
10891;DHT22;5498;50.928;11.598;2022-08-20T15:27:54;23.50;75.00
10891;DHT22;5498;50.928;11.598;2022-08-20T15:30:56;24.00;75.80
10891;DHT22;5498;50.928;11.598;2022-08-20T15:34:00;23.30;73.80
10891;DHT22;5498;50.928;11.598;2022-08-20T15:37:06;23.40;74.30
10891;DHT22;5498;50.928;11.598;2022-08-20T15:40:11;23.60;75.30
10891;DHT22;5498;50.928;11.598;2022-08-20T15:43:15;23.60;75.30
10891;DHT22;5498;50.928;11.598;2022-08-20T15:46:16;23.60;75.30
10891;DHT22;5498;50.928;11.598;2022-08-20T15:49:20;23.70;75.50
10891;DHT22;5498;50.928;11.598;2022-08-20T15:52:23;23.70;75.80
10891;DHT22;5498;50.928;11.598;2022-08-20T15:55:27;24.00;76.80
10891;DHT22;5498;50.928;11.598;2022-08-20T15:58:35;23.70;76.80
10891;DHT22;5498;50.928;11.598;2022-08-20T16:01:45;23.70;77.60
10891;DHT22;5498;50.928;11.598;2022-08-20T16:05:03;24.20;78.00
10891;DHT22;5498;50.928;11.598;2022-08-20T16:08:21;23.70;78.20
10891;DHT22;5498;50.928;11.598;2022-08-20T16:11:44;23.60;78.10
10891;DHT22;5498;50.928;11.598;2022-08-20T16:14:52;23.60;78.10
10891;DHT22;5498;50.928;11.598;2022-08-20T16:18:02;23.60;78.20
10891;DHT22;5498;50.928;11.598;2022-08-20T16:21:10;23.60;78.50
10891;DHT22;5498;50.928;11.598;2022-08-20T16:24:14;23.60;78.50
10891;DHT22;5498;50.928;11.598;2022-08-20T16:27:24;23.60;78.40
10891;DHT22;5498;50.928;11.598;2022-08-20T16:30:39;23.60;78.90
10891;DHT22;5498;50.928;11.598;2022-08-20T16:33:47;23.60;79.10
10891;DHT22;5498;50.928;11.598;2022-08-20T16:37:02;23.70;79.00
10891;DHT22;5498;50.928;11.598;2022-08-20T16:40:17;23.60;79.10
10891;DHT22;5498;50.928;11.598;2022-08-20T16:43:25;23.60;79.20
10891;DHT22;5498;50.928;11.598;2022-08-20T16:46:44;23.70;79.10
10891;DHT22;5498;50.928;11.598;2022-08-20T16:49:52;23.70;79.00
10891;DHT22;5498;50.928;11.598;2022-08-20T16:52:58;23.70;79.20
10891;DHT22;5498;50.928;11.598;2022-08-20T16:56:01;23.60;78.80
10891;DHT22;5498;50.928;11.598;2022-08-20T16:59:04;23.60;79.00
10891;DHT22;5498;50.928;11.598;2022-08-20T17:02:09;23.60;79.20
10891;DHT22;5498;50.928;11.598;2022-08-20T17:05:11;23.60;79.30
10891;DHT22;5498;50.928;11.598;2022-08-20T17:08:21;23.60;78.50
10891;DHT22;5498;50.928;11.598;2022-08-20T17:11:27;23.60;79.20
10891;DHT22;5498;50.928;11.598;2022-08-20T17:14:43;23.50;79.20
10891;DHT22;5498;50.928;11.598;2022-08-20T17:17:46;23.70;79.30
10891;DHT22;5498;50.928;11.598;2022-08-20T17:20:48;23.50;78.60
10891;DHT22;5498;50.928;11.598;2022-08-20T17:23:55;23.40;78.50
10891;DHT22;5498;50.928;11.598;2022-08-20T17:27:01;23.40;79.50
10891;DHT22;5498;50.928;11.598;2022-08-20T17:30:10;23.40;78.90
10891;DHT22;5498;50.928;11.598;2022-08-20T17:33:22;23.40;79.10
10891;DHT22;5498;50.928;11.598;2022-08-20T17:36:30;23.40;78.80
10891;DHT22;5498;50.928;11.598;2022-08-20T17:39:34;23.40;78.70
10891;DHT22;5498;50.928;11.598;2022-08-20T17:42:49;23.40;78.80
10891;DHT22;5498;50.928;11.598;2022-08-20T17:45:52;23.80;79.00
10891;DHT22;5498;50.928;11.598;2022-08-20T17:48:56;23.30;78.40
10891;DHT22;5498;50.928;11.598;2022-08-20T17:52:03;23.30;79.10
10891;DHT22;5498;50.928;11.598;2022-08-20T17:55:10;23.30;79.30
10891;DHT22;5498;50.928;11.598;2022-08-20T17:58:16;23.30;79.50
10891;DHT22;5498;50.928;11.598;2022-08-20T18:01:19;23.00;79.90
10891;DHT22;5498;50.928;11.598;2022-08-20T18:04:21;22.90;80.20
10891;DHT22;5498;50.928;11.598;2022-08-20T18:07:26;22.80;80.60
10891;DHT22;5498;50.928;11.598;2022-08-20T18:10:37;22.80;80.90
10891;DHT22;5498;50.928;11.598;2022-08-20T18:13:59;22.70;80.70
10891;DHT22;5498;50.928;11.598;2022-08-20T18:17:28;22.60;82.00
10891;DHT22;5498;50.928;11.598;2022-08-20T18:21:09;22.60;81.40
10891;DHT22;5498;50.928;11.598;2022-08-20T18:24:22;22.50;81.40
10891;DHT22;5498;50.928;11.598;2022-08-20T18:27:35;22.50;81.30
10891;DHT22;5498;50.928;11.598;2022-08-20T18:30:53;22.60;81.70
10891;DHT22;5498;50.928;11.598;2022-08-20T18:33:56;22.90;82.20
10891;DHT22;5498;50.928;11.598;2022-08-20T18:37:00;22.70;82.20
10891;DHT22;5498;50.928;11.598;2022-08-20T18:40:07;22.70;82.20
10891;DHT22;5498;50.928;11.598;2022-08-20T18:43:26;22.70;82.20
10891;DHT22;5498;50.928;11.598;2022-08-20T18:46:30;22.70;81.80
10891;DHT22;5498;50.928;11.598;2022-08-20T18:49:34;22.70;81.40
10891;DHT22;5498;50.928;11.598;2022-08-20T18:52:39;22.70;82.20
10891;DHT22;5498;50.928;11.598;2022-08-20T18:55:44;22.70;80.80
10891;DHT22;5498;50.928;11.598;2022-08-20T18:58:57;22.70;81.50
10891;DHT22;5498;50.928;11.598;2022-08-20T19:02:13;23.10;82.00
10891;DHT22;5498;50.928;11.598;2022-08-20T19:05:25;22.70;82.30
10891;DHT22;5498;50.928;11.598;2022-08-20T19:08:40;22.70;82.60
10891;DHT22;5498;50.928;11.598;2022-08-20T19:11:57;22.70;82.90
10891;DHT22;5498;50.928;11.598;2022-08-20T19:15:07;22.70;83.00
10891;DHT22;5498;50.928;11.598;2022-08-20T19:18:15;22.70;82.90
10891;DHT22;5498;50.928;11.598;2022-08-20T19:21:24;22.70;83.30
10891;DHT22;5498;50.928;11.598;2022-08-20T19:24:33;22.60;83.50
10891;DHT22;5498;50.928;11.598;2022-08-20T19:27:35;22.60;84.10
10891;DHT22;5498;50.928;11.598;2022-08-20T19:30:40;22.70;84.20
10891;DHT22;5498;50.928;11.598;2022-08-20T19:33:43;22.60;84.80
10891;DHT22;5498;50.928;11.598;2022-08-20T19:36:52;22.60;85.40
10891;DHT22;5498;50.928;11.598;2022-08-20T19:39:57;22.80;86.10
10891;DHT22;5498;50.928;11.598;2022-08-20T19:43:03;22.40;86.80
10891;DHT22;5498;50.928;11.598;2022-08-20T19:46:08;22.10;85.80
10891;DHT22;5498;50.928;11.598;2022-08-20T19:49:17;21.70;87.70
10891;DHT22;5498;50.928;11.598;2022-08-20T19:52:30;21.20;89.70
10891;DHT22;5498;50.928;11.598;2022-08-20T19:55:39;21.10;90.20
10891;DHT22;5498;50.928;11.598;2022-08-20T19:58:42;21.00;90.40
10891;DHT22;5498;50.928;11.598;2022-08-20T20:01:53;21.10;90.60
10891;DHT22;5498;50.928;11.598;2022-08-20T20:05:03;21.10;90.90